sensor_id;sensor_type;location;lat;lon;timestamp;pressure;altitude;pressure_sealevel;temperature;humidity
61571;BME280;47463;49.884;10.010;2023-08-17T00:00:01;101910;;;18.1;83
61571;BME280;47463;49.884;10.010;2023-08-17T00:05:01;101900;;;18.1;82
61571;BME280;47463;49.884;10.010;2023-08-17T00:10:01;101900;;;18.1;83
61571;BME280;47463;49.884;10.010;2023-08-17T00:15:01;101890;;;18.1;82
61571;BME280;47463;49.884;10.010;2023-08-17T00:20:01;101890;;;18;83
61571;BME280;47463;49.884;10.010;2023-08-17T00:25:01;101880;;;18;83
61571;BME280;47463;49.884;10.010;2023-08-17T00:30:01;101900;;;17.9;83
61571;BME280;47463;49.884;10.010;2023-08-17T00:35:01;101910;;;17.9;83
61571;BME280;47463;49.884;10.010;2023-08-17T00:40:01;101910;;;17.8;84
61571;BME280;47463;49.884;10.010;2023-08-17T00:45:01;101900;;;17.8;84
61571;BME280;47463;49.884;10.010;2023-08-17T00:50:01;101910;;;17.7;84
61571;BME280;47463;49.884;10.010;2023-08-17T00:55:01;101920;;;17.7;85
61571;BME280;47463;49.884;10.010;2023-08-17T01:00:01;101910;;;17.7;85
61571;BME280;47463;49.884;10.010;2023-08-17T01:05:01;101910;;;17.8;85
61571;BME280;47463;49.884;10.010;2023-08-17T01:10:01;101930;;;17.8;84
61571;BME280;47463;49.884;10.010;2023-08-17T01:15:03;101940;;;17.8;84
61571;BME280;47463;49.884;10.010;2023-08-17T01:20:01;101930;;;17.8;84
61571;BME280;47463;49.884;10.010;2023-08-17T01:25:01;101920;;;17.8;85
61571;BME280;47463;49.884;10.010;2023-08-17T01:30:01;101880;;;17.8;85
61571;BME280;47463;49.884;10.010;2023-08-17T01:35:01;101860;;;17.7;85
61571;BME280;47463;49.884;10.010;2023-08-17T01:40:01;101850;;;17.6;85
61571;BME280;47463;49.884;10.010;2023-08-17T01:45:01;101870;;;17.6;86
61571;BME280;47463;49.884;10.010;2023-08-17T01:50:01;101880;;;17.6;86
61571;BME280;47463;49.884;10.010;2023-08-17T01:55:01;101880;;;17.7;86
61571;BME280;47463;49.884;10.010;2023-08-17T02:00:01;101870;;;17.6;86
61571;BME280;47463;49.884;10.010;2023-08-17T02:05:01;101870;;;17.6;86
61571;BME280;47463;49.884;10.010;2023-08-17T02:10:01;101880;;;17.6;86
61571;BME280;47463;49.884;10.010;2023-08-17T02:15:01;101870;;;17.6;86
61571;BME280;47463;49.884;10.010;2023-08-17T02:20:01;101870;;;17.5;86
61571;BME280;47463;49.884;10.010;2023-08-17T02:25:01;101850;;;17.5;86
61571;BME280;47463;49.884;10.010;2023-08-17T02:30:01;101850;;;17.5;86
61571;BME280;47463;49.884;10.010;2023-08-17T02:35:01;101840;;;17.4;87
61571;BME280;47463;49.884;10.010;2023-08-17T02:40:01;101840;;;17.4;86
61571;BME280;47463;49.884;10.010;2023-08-17T02:45:01;101830;;;17.4;86
61571;BME280;47463;49.884;10.010;2023-08-17T02:50:01;101830;;;17.4;86
61571;BME280;47463;49.884;10.010;2023-08-17T02:55:01;101840;;;17.4;86
61571;BME280;47463;49.884;10.010;2023-08-17T03:00:01;101830;;;17.4;86
61571;BME280;47463;49.884;10.010;2023-08-17T03:05:01;101850;;;17.4;86
61571;BME280;47463;49.884;10.010;2023-08-17T03:10:01;101850;;;17.4;86
61571;BME280;47463;49.884;10.010;2023-08-17T03:15:01;101850;;;17.3;86
61571;BME280;47463;49.884;10.010;2023-08-17T03:20:01;101840;;;17.3;87
61571;BME280;47463;49.884;10.010;2023-08-17T03:25:01;101850;;;17.3;87
61571;BME280;47463;49.884;10.010;2023-08-17T03:30:01;101850;;;17.3;87
61571;BME280;47463;49.884;10.010;2023-08-17T03:35:01;101850;;;17.3;87
61571;BME280;47463;49.884;10.010;2023-08-17T03:40:01;101850;;;17.3;87
61571;BME280;47463;49.884;10.010;2023-08-17T03:45:01;101850;;;17.3;87
61571;BME280;47463;49.884;10.010;2023-08-17T03:50:01;101860;;;17.3;87
61571;BME280;47463;49.884;10.010;2023-08-17T03:55:01;101850;;;17.3;87
61571;BME280;47463;49.884;10.010;2023-08-17T04:00:01;101850;;;17.3;87
61571;BME280;47463;49.884;10.010;2023-08-17T04:05:01;101850;;;17.2;87
61571;BME280;47463;49.884;10.010;2023-08-17T04:10:01;101840;;;17.2;87
61571;BME280;47463;49.884;10.010;2023-08-17T04:15:01;101850;;;17.1;87
61571;BME280;47463;49.884;10.010;2023-08-17T04:20:01;101840;;;17.1;87
61571;BME280;47463;49.884;10.010;2023-08-17T04:25:01;101850;;;17.1;87
61571;BME280;47463;49.884;10.010;2023-08-17T04:30:01;101860;;;17.2;87
61571;BME280;47463;49.884;10.010;2023-08-17T04:35:01;101870;;;17.2;87
61571;BME280;47463;49.884;10.010;2023-08-17T04:40:01;101860;;;17.2;87
61571;BME280;47463;49.884;10.010;2023-08-17T04:45:01;101870;;;17.2;87
61571;BME280;47463;49.884;10.010;2023-08-17T04:50:01;101870;;;17.4;87
61571;BME280;47463;49.884;10.010;2023-08-17T04:55:01;101880;;;17.6;87
61571;BME280;47463;49.884;10.010;2023-08-17T05:00:01;101870;;;17.8;86
61571;BME280;47463;49.884;10.010;2023-08-17T05:05:02;101870;;;18.1;86
61571;BME280;47463;49.884;10.010;2023-08-17T05:10:01;101870;;;18.3;85
61571;BME280;47463;49.884;10.010;2023-08-17T05:15:01;101880;;;18.5;84
61571;BME280;47463;49.884;10.010;2023-08-17T05:20:01;101870;;;18.7;84
61571;BME280;47463;49.884;10.010;2023-08-17T05:25:01;101870;;;18.9;83
61571;BME280;47463;49.884;10.010;2023-08-17T05:30:01;101880;;;19.1;83
61571;BME280;47463;49.884;10.010;2023-08-17T05:35:01;101870;;;19.4;82
61571;BME280;47463;49.884;10.010;2023-08-17T05:40:01;101860;;;19.8;81
61571;BME280;47463;49.884;10.010;2023-08-17T05:45:01;101880;;;20;79
61571;BME280;47463;49.884;10.010;2023-08-17T05:50:01;101880;;;20.3;78
61571;BME280;47463;49.884;10.010;2023-08-17T05:55:01;101880;;;20.5;77
61571;BME280;47463;49.884;10.010;2023-08-17T06:00:01;101870;;;20.1;78
61571;BME280;47463;49.884;10.010;2023-08-17T06:05:01;101890;;;19.9;78
61571;BME280;47463;49.884;10.010;2023-08-17T06:10:03;101890;;;20.2;78
61571;BME280;47463;49.884;10.010;2023-08-17T06:15:01;101880;;;20.5;77
61571;BME280;47463;49.884;10.010;2023-08-17T06:20:01;101870;;;21.4;75
61571;BME280;47463;49.884;10.010;2023-08-17T06:25:01;101870;;;21.4;74
61571;BME280;47463;49.884;10.010;2023-08-17T06:30:01;101870;;;21.8;73
61571;BME280;47463;49.884;10.010;2023-08-17T06:35:01;101870;;;21.8;73
61571;BME280;47463;49.884;10.010;2023-08-17T06:40:01;101870;;;21.4;74
61571;BME280;47463;49.884;10.010;2023-08-17T06:45:01;101880;;;21.6;74
61571;BME280;47463;49.884;10.010;2023-08-17T06:50:01;101880;;;21.7;74
61571;BME280;47463;49.884;10.010;2023-08-17T06:55:01;101870;;;21.8;74
61571;BME280;47463;49.884;10.010;2023-08-17T07:00:01;101860;;;21.8;73
61571;BME280;47463;49.884;10.010;2023-08-17T07:05:01;101870;;;21.9;74
61571;BME280;47463;49.884;10.010;2023-08-17T07:10:01;101880;;;22;73
61571;BME280;47463;49.884;10.010;2023-08-17T07:15:01;101890;;;21.8;73
61571;BME280;47463;49.884;10.010;2023-08-17T07:20:01;101890;;;22.4;72
61571;BME280;47463;49.884;10.010;2023-08-17T07:25:01;101880;;;22.3;72
61571;BME280;47463;49.884;10.010;2023-08-17T07:30:01;101880;;;22;72
61571;BME280;47463;49.884;10.010;2023-08-17T07:35:01;101890;;;22.3;71
61571;BME280;47463;49.884;10.010;2023-08-17T07:40:01;101880;;;23.1;70
61571;BME280;47463;49.884;10.010;2023-08-17T07:45:01;101880;;;23.9;66
61571;BME280;47463;49.884;10.010;2023-08-17T07:50:01;101890;;;23.7;66
61571;BME280;47463;49.884;10.010;2023-08-17T07:55:01;101890;;;23.8;67
61571;BME280;47463;49.884;10.010;2023-08-17T08:00:01;101890;;;23.5;68
61571;BME280;47463;49.884;10.010;2023-08-17T08:05:01;101890;;;23.4;68
61571;BME280;47463;49.884;10.010;2023-08-17T08:10:01;101890;;;23.8;67
61571;BME280;47463;49.884;10.010;2023-08-17T08:15:01;101870;;;24.5;66
61571;BME280;47463;49.884;10.010;2023-08-17T08:20:01;101880;;;24.1;67
61571;BME280;47463;49.884;10.010;2023-08-17T08:25:01;101880;;;24.1;66
61571;BME280;47463;49.884;10.010;2023-08-17T08:30:01;101870;;;24.6;65
61571;BME280;47463;49.884;10.010;2023-08-17T08:35:01;101860;;;24.5;65
61571;BME280;47463;49.884;10.010;2023-08-17T08:40:01;101860;;;24.4;66
61571;BME280;47463;49.884;10.010;2023-08-17T08:45:01;101870;;;24.3;66
61571;BME280;47463;49.884;10.010;2023-08-17T08:50:01;101860;;;24.2;66
61571;BME280;47463;49.884;10.010;2023-08-17T08:55:06;101860;;;24.3;66
61571;BME280;47463;49.884;10.010;2023-08-17T09:00:01;101860;;;24.2;66
61571;BME280;47463;49.884;10.010;2023-08-17T09:05:01;101850;;;24.7;66
61571;BME280;47463;49.884;10.010;2023-08-17T09:10:01;101840;;;25.4;64
61571;BME280;47463;49.884;10.010;2023-08-17T09:15:01;101830;;;25.6;62
61571;BME280;47463;49.884;10.010;2023-08-17T09:20:01;101830;;;25.6;63
61571;BME280;47463;49.884;10.010;2023-08-17T09:25:01;101820;;;25.6;63
61571;BME280;47463;49.884;10.010;2023-08-17T09:30:01;101820;;;25.5;63
61571;BME280;47463;49.884;10.010;2023-08-17T09:35:01;101820;;;25.6;62
61571;BME280;47463;49.884;10.010;2023-08-17T09:40:01;101820;;;26;61
61571;BME280;47463;49.884;10.010;2023-08-17T09:45:01;101820;;;25.7;61
61571;BME280;47463;49.884;10.010;2023-08-17T09:50:01;101820;;;26.1;61
61571;BME280;47463;49.884;10.010;2023-08-17T09:55:01;101830;;;25.4;63
61571;BME280;47463;49.884;10.010;2023-08-17T10:00:01;101820;;;25.8;62
61571;BME280;47463;49.884;10.010;2023-08-17T10:05:01;101810;;;25.9;62
61571;BME280;47463;49.884;10.010;2023-08-17T10:10:02;101810;;;26.4;60
61571;BME280;47463;49.884;10.010;2023-08-17T10:15:02;101800;;;25.6;62
61571;BME280;47463;49.884;10.010;2023-08-17T10:20:01;101790;;;26.4;60
61571;BME280;47463;49.884;10.010;2023-08-17T10:25:01;101800;;;26.6;59
61571;BME280;47463;49.884;10.010;2023-08-17T10:30:01;101790;;;26.2;60
61571;BME280;47463;49.884;10.010;2023-08-17T10:35:01;101790;;;26.9;58
61571;BME280;47463;49.884;10.010;2023-08-17T10:40:01;101790;;;27;57
61571;BME280;47463;49.884;10.010;2023-08-17T10:45:01;101790;;;27.2;57
61571;BME280;47463;49.884;10.010;2023-08-17T10:50:02;101780;;;26.1;60
61571;BME280;47463;49.884;10.010;2023-08-17T10:55:01;101780;;;26.6;58
61571;BME280;47463;49.884;10.010;2023-08-17T11:00:17;101770;;;26.6;58
61571;BME280;47463;49.884;10.010;2023-08-17T11:05:01;101770;;;26.9;58
61571;BME280;47463;49.884;10.010;2023-08-17T11:10:01;101780;;;27.2;57
61571;BME280;47463;49.884;10.010;2023-08-17T11:15:01;101770;;;27.9;55
61571;BME280;47463;49.884;10.010;2023-08-17T11:20:01;101770;;;28.3;54
61571;BME280;47463;49.884;10.010;2023-08-17T11:25:01;101760;;;28.7;53
61571;BME280;47463;49.884;10.010;2023-08-17T11:30:01;101750;;;28.1;53
61571;BME280;47463;49.884;10.010;2023-08-17T11:35:01;101750;;;27.8;54
61571;BME280;47463;49.884;10.010;2023-08-17T11:40:01;101760;;;27.6;54
61571;BME280;47463;49.884;10.010;2023-08-17T11:45:01;101760;;;28;55
61571;BME280;47463;49.884;10.010;2023-08-17T11:50:01;101750;;;28.2;53
61571;BME280;47463;49.884;10.010;2023-08-17T11:55:01;101740;;;28.8;51
61571;BME280;47463;49.884;10.010;2023-08-17T12:00:01;101740;;;28.6;51
61571;BME280;47463;49.884;10.010;2023-08-17T12:05:02;101740;;;28.8;52
61571;BME280;47463;49.884;10.010;2023-08-17T12:10:02;101750;;;29.1;50
61571;BME280;47463;49.884;10.010;2023-08-17T12:15:01;101740;;;28.7;52
61571;BME280;47463;49.884;10.010;2023-08-17T12:20:01;101730;;;28.5;53
61571;BME280;47463;49.884;10.010;2023-08-17T12:25:01;101730;;;28.3;55
61571;BME280;47463;49.884;10.010;2023-08-17T12:30:01;101720;;;28;55
61571;BME280;47463;49.884;10.010;2023-08-17T12:35:01;101720;;;28.4;54
61571;BME280;47463;49.884;10.010;2023-08-17T12:40:01;101710;;;28.8;53
61571;BME280;47463;49.884;10.010;2023-08-17T12:45:01;101710;;;28.8;53
61571;BME280;47463;49.884;10.010;2023-08-17T12:50:01;101700;;;29.4;52
61571;BME280;47463;49.884;10.010;2023-08-17T12:55:01;101710;;;29.9;50
61571;BME280;47463;49.884;10.010;2023-08-17T13:00:01;101700;;;30.1;49
61571;BME280;47463;49.884;10.010;2023-08-17T13:05:01;101710;;;29.8;48
61571;BME280;47463;49.884;10.010;2023-08-17T13:10:01;101700;;;30.3;47
61571;BME280;47463;49.884;10.010;2023-08-17T13:15:01;101700;;;30.8;46
61571;BME280;47463;49.884;10.010;2023-08-17T13:20:01;101690;;;30.2;48
61571;BME280;47463;49.884;10.010;2023-08-17T13:25:01;101690;;;29.6;49
61571;BME280;47463;49.884;10.010;2023-08-17T13:30:01;101680;;;29.5;49
61571;BME280;47463;49.884;10.010;2023-08-17T13:35:01;101670;;;29.5;49
61571;BME280;47463;49.884;10.010;2023-08-17T13:40:01;101670;;;28.6;52
61571;BME280;47463;49.884;10.010;2023-08-17T13:45:01;101670;;;28.8;51
61571;BME280;47463;49.884;10.010;2023-08-17T13:50:01;101670;;;29.2;50
61571;BME280;47463;49.884;10.010;2023-08-17T13:55:01;101650;;;28.9;51
61571;BME280;47463;49.884;10.010;2023-08-17T14:00:01;101650;;;28.9;50
61571;BME280;47463;49.884;10.010;2023-08-17T14:05:01;101640;;;29.1;50
61571;BME280;47463;49.884;10.010;2023-08-17T14:10:01;101640;;;28.9;50
61571;BME280;47463;49.884;10.010;2023-08-17T14:15:01;101630;;;29.1;49
61571;BME280;47463;49.884;10.010;2023-08-17T14:20:01;101610;;;28.9;51
61571;BME280;47463;49.884;10.010;2023-08-17T14:25:01;101600;;;28.8;50
61571;BME280;47463;49.884;10.010;2023-08-17T14:30:01;101600;;;28.9;50
61571;BME280;47463;49.884;10.010;2023-08-17T14:35:01;101590;;;28.3;50
61571;BME280;47463;49.884;10.010;2023-08-17T14:40:01;101600;;;28.1;50
61571;BME280;47463;49.884;10.010;2023-08-17T14:45:01;101600;;;28;50
61571;BME280;47463;49.884;10.010;2023-08-17T14:50:01;101590;;;28.2;50
61571;BME280;47463;49.884;10.010;2023-08-17T14:55:01;101580;;;28;50
61571;BME280;47463;49.884;10.010;2023-08-17T15:00:01;101570;;;27.8;52
61571;BME280;47463;49.884;10.010;2023-08-17T15:05:01;101570;;;27.8;53
61571;BME280;47463;49.884;10.010;2023-08-17T15:10:01;101590;;;27.6;54
61571;BME280;47463;49.884;10.010;2023-08-17T15:15:01;101600;;;27.6;54
61571;BME280;47463;49.884;10.010;2023-08-17T15:20:01;101580;;;27.4;54
61571;BME280;47463;49.884;10.010;2023-08-17T15:25:01;101580;;;27.1;55
61571;BME280;47463;49.884;10.010;2023-08-17T15:30:01;101600;;;26.8;57
61571;BME280;47463;49.884;10.010;2023-08-17T15:35:01;101600;;;26.5;59
61571;BME280;47463;49.884;10.010;2023-08-17T15:40:01;101600;;;26.5;59
61571;BME280;47463;49.884;10.010;2023-08-17T15:45:01;101620;;;26.4;59
61571;BME280;47463;49.884;10.010;2023-08-17T15:50:01;101640;;;26.3;59
61571;BME280;47463;49.884;10.010;2023-08-17T15:55:01;101630;;;26.5;60
61571;BME280;47463;49.884;10.010;2023-08-17T16:00:01;101640;;;26.5;59
61571;BME280;47463;49.884;10.010;2023-08-17T16:05:01;101670;;;26.6;58
61571;BME280;47463;49.884;10.010;2023-08-17T16:10:01;101660;;;26.5;61
61571;BME280;47463;49.884;10.010;2023-08-17T16:15:01;101660;;;25.6;67
61571;BME280;47463;49.884;10.010;2023-08-17T16:20:01;101660;;;25.4;66
61571;BME280;47463;49.884;10.010;2023-08-17T16:25:01;101660;;;24.9;62
61571;BME280;47463;49.884;10.010;2023-08-17T16:30:01;101660;;;24.4;59
61571;BME280;47463;49.884;10.010;2023-08-17T16:35:01;101670;;;24.2;60
61571;BME280;47463;49.884;10.010;2023-08-17T16:40:01;101690;;;23.9;59
61571;BME280;47463;49.884;10.010;2023-08-17T16:45:01;101670;;;23.7;59
61571;BME280;47463;49.884;10.010;2023-08-17T16:50:01;101670;;;23.4;60
61571;BME280;47463;49.884;10.010;2023-08-17T16:55:01;101660;;;23.4;60
61571;BME280;47463;49.884;10.010;2023-08-17T17:00:01;101670;;;23.4;60
61571;BME280;47463;49.884;10.010;2023-08-17T17:05:01;101680;;;23.5;60
61571;BME280;47463;49.884;10.010;2023-08-17T17:10:01;101670;;;23.3;61
61571;BME280;47463;49.884;10.010;2023-08-17T17:15:01;101680;;;23.3;60
61571;BME280;47463;49.884;10.010;2023-08-17T17:20:01;101670;;;23.2;62
61571;BME280;47463;49.884;10.010;2023-08-17T17:25:01;101670;;;23.1;63
61571;BME280;47463;49.884;10.010;2023-08-17T17:30:01;101670;;;23.1;63
61571;BME280;47463;49.884;10.010;2023-08-17T17:35:01;101670;;;22.9;66
61571;BME280;47463;49.884;10.010;2023-08-17T17:40:01;101670;;;22.4;68
61571;BME280;47463;49.884;10.010;2023-08-17T17:45:01;101660;;;22.3;68
61571;BME280;47463;49.884;10.010;2023-08-17T17:50:01;101660;;;22.3;68
61571;BME280;47463;49.884;10.010;2023-08-17T17:55:01;101660;;;22.3;69
61571;BME280;47463;49.884;10.010;2023-08-17T18:00:01;101670;;;22.2;71
61571;BME280;47463;49.884;10.010;2023-08-17T18:05:01;101670;;;22.1;71
61571;BME280;47463;49.884;10.010;2023-08-17T18:10:01;101660;;;22.1;71
61571;BME280;47463;49.884;10.010;2023-08-17T18:15:01;101670;;;22;70
61571;BME280;47463;49.884;10.010;2023-08-17T18:20:01;101680;;;22;70
61571;BME280;47463;49.884;10.010;2023-08-17T18:25:01;101700;;;21.9;71
61571;BME280;47463;49.884;10.010;2023-08-17T18:30:01;101700;;;21.9;71
61571;BME280;47463;49.884;10.010;2023-08-17T18:35:01;101700;;;21.9;71
61571;BME280;47463;49.884;10.010;2023-08-17T18:40:01;101700;;;21.8;71
61571;BME280;47463;49.884;10.010;2023-08-17T18:45:01;101770;;;21.8;71
61571;BME280;47463;49.884;10.010;2023-08-17T18:50:01;101780;;;21.9;70
61571;BME280;47463;49.884;10.010;2023-08-17T18:55:01;101800;;;22.1;69
61571;BME280;47463;49.884;10.010;2023-08-17T19:00:01;101810;;;22.3;69
61571;BME280;47463;49.884;10.010;2023-08-17T19:05:01;101820;;;22.4;69
61571;BME280;47463;49.884;10.010;2023-08-17T19:10:01;101820;;;22.4;70
61571;BME280;47463;49.884;10.010;2023-08-17T19:15:01;101820;;;22.3;71
61571;BME280;47463;49.884;10.010;2023-08-17T19:20:01;101800;;;22.3;71
61571;BME280;47463;49.884;10.010;2023-08-17T19:25:01;101830;;;21.9;71
61571;BME280;47463;49.884;10.010;2023-08-17T19:30:01;101860;;;21.9;70
61571;BME280;47463;49.884;10.010;2023-08-17T19:35:01;101860;;;21.7;68
61571;BME280;47463;49.884;10.010;2023-08-17T19:40:01;101870;;;21.6;66
61571;BME280;47463;49.884;10.010;2023-08-17T19:45:01;101870;;;21.5;66
61571;BME280;47463;49.884;10.010;2023-08-17T19:50:01;101870;;;21.4;66
61571;BME280;47463;49.884;10.010;2023-08-17T19:55:01;101860;;;21.3;67
61571;BME280;47463;49.884;10.010;2023-08-17T20:00:01;101860;;;21.2;67
61571;BME280;47463;49.884;10.010;2023-08-17T20:05:01;101860;;;21.2;67
61571;BME280;47463;49.884;10.010;2023-08-17T20:10:01;101870;;;21;68
61571;BME280;47463;49.884;10.010;2023-08-17T20:15:01;101860;;;21;68
61571;BME280;47463;49.884;10.010;2023-08-17T20:20:01;101850;;;20.9;68
61571;BME280;47463;49.884;10.010;2023-08-17T20:25:01;101840;;;20.7;69
61571;BME280;47463;49.884;10.010;2023-08-17T20:30:01;101850;;;20.6;70
61571;BME280;47463;49.884;10.010;2023-08-17T20:35:01;101850;;;20.6;69
61571;BME280;47463;49.884;10.010;2023-08-17T20:40:01;101860;;;20.6;70
61571;BME280;47463;49.884;10.010;2023-08-17T20:45:01;101860;;;20.6;70
61571;BME280;47463;49.884;10.010;2023-08-17T20:50:01;101880;;;20.7;69
61571;BME280;47463;49.884;10.010;2023-08-17T20:55:01;101880;;;20.5;70
61571;BME280;47463;49.884;10.010;2023-08-17T21:00:01;101880;;;20.3;72
61571;BME280;47463;49.884;10.010;2023-08-17T21:05:01;101880;;;20.1;73
61571;BME280;47463;49.884;10.010;2023-08-17T21:10:01;101880;;;20.1;74
61571;BME280;47463;49.884;10.010;2023-08-17T21:15:01;101880;;;20.2;74
61571;BME280;47463;49.884;10.010;2023-08-17T21:20:01;101870;;;20.2;75
61571;BME280;47463;49.884;10.010;2023-08-17T21:25:01;101860;;;20;76
61571;BME280;47463;49.884;10.010;2023-08-17T21:30:01;101860;;;19.8;77
61571;BME280;47463;49.884;10.010;2023-08-17T21:35:01;101850;;;19.7;78
61571;BME280;47463;49.884;10.010;2023-08-17T21:40:01;101850;;;19.7;78
61571;BME280;47463;49.884;10.010;2023-08-17T21:45:01;101850;;;19.6;79
61571;BME280;47463;49.884;10.010;2023-08-17T21:50:01;101850;;;19.6;79
61571;BME280;47463;49.884;10.010;2023-08-17T21:55:01;101850;;;19.6;79
61571;BME280;47463;49.884;10.010;2023-08-17T22:00:01;101860;;;19.5;79
61571;BME280;47463;49.884;10.010;2023-08-17T22:05:01;101850;;;19.5;79
61571;BME280;47463;49.884;10.010;2023-08-17T22:10:01;101860;;;19.4;79
61571;BME280;47463;49.884;10.010;2023-08-17T22:15:01;101880;;;19.3;79
61571;BME280;47463;49.884;10.010;2023-08-17T22:20:01;101880;;;19.3;79
61571;BME280;47463;49.884;10.010;2023-08-17T22:25:01;101870;;;19.3;79
61571;BME280;47463;49.884;10.010;2023-08-17T22:30:01;101860;;;19.2;79
61571;BME280;47463;49.884;10.010;2023-08-17T22:35:01;101860;;;19.1;80
61571;BME280;47463;49.884;10.010;2023-08-17T22:40:01;101860;;;19.1;80
61571;BME280;47463;49.884;10.010;2023-08-17T22:45:01;101860;;;19.1;81
61571;BME280;47463;49.884;10.010;2023-08-17T22:50:01;101840;;;19.1;81
61571;BME280;47463;49.884;10.010;2023-08-17T22:55:01;101830;;;19;81
61571;BME280;47463;49.884;10.010;2023-08-17T23:00:01;101820;;;18.8;81
61571;BME280;47463;49.884;10.010;2023-08-17T23:05:01;101820;;;18.7;81
61571;BME280;47463;49.884;10.010;2023-08-17T23:10:01;101830;;;18.6;81
61571;BME280;47463;49.884;10.010;2023-08-17T23:15:01;101840;;;18.5;81
61571;BME280;47463;49.884;10.010;2023-08-17T23:20:01;101840;;;18.4;82
61571;BME280;47463;49.884;10.010;2023-08-17T23:25:01;101840;;;18.4;81
61571;BME280;47463;49.884;10.010;2023-08-17T23:30:01;101850;;;18.4;81
61571;BME280;47463;49.884;10.010;2023-08-17T23:35:01;101860;;;18.3;81
61571;BME280;47463;49.884;10.010;2023-08-17T23:40:01;101860;;;18.3;81
61571;BME280;47463;49.884;10.010;2023-08-17T23:45:01;101850;;;18.3;81
61571;BME280;47463;49.884;10.010;2023-08-17T23:50:01;101870;;;18.4;81
61571;BME280;47463;49.884;10.010;2023-08-17T23:55:01;101870;;;18.3;81
